sensor_id;sensor_type;location;lat;lon;timestamp;temperature;humidity
44215;DHT22;29884;47.450;19.124;2023-12-29T00:01:18;1.40;99.90
44215;DHT22;29884;47.450;19.124;2023-12-29T00:03:44;1.40;99.90
44215;DHT22;29884;47.450;19.124;2023-12-29T00:06:09;1.40;99.90
44215;DHT22;29884;47.450;19.124;2023-12-29T00:08:36;1.40;99.90
44215;DHT22;29884;47.450;19.124;2023-12-29T00:11:02;1.40;99.90
44215;DHT22;29884;47.450;19.124;2023-12-29T00:13:28;1.50;99.90
44215;DHT22;29884;47.450;19.124;2023-12-29T00:15:54;1.40;99.90
44215;DHT22;29884;47.450;19.124;2023-12-29T00:18:21;1.40;99.90
44215;DHT22;29884;47.450;19.124;2023-12-29T00:20:47;1.40;99.90
44215;DHT22;29884;47.450;19.124;2023-12-29T00:23:13;1.40;99.90
44215;DHT22;29884;47.450;19.124;2023-12-29T00:25:39;1.40;99.90
44215;DHT22;29884;47.450;19.124;2023-12-29T00:28:05;1.40;99.90
44215;DHT22;29884;47.450;19.124;2023-12-29T00:30:31;1.40;99.90
44215;DHT22;29884;47.450;19.124;2023-12-29T00:32:57;1.50;99.90
44215;DHT22;29884;47.450;19.124;2023-12-29T00:35:22;1.50;99.90
44215;DHT22;29884;47.450;19.124;2023-12-29T00:37:49;1.50;99.90
44215;DHT22;29884;47.450;19.124;2023-12-29T00:40:18;1.50;99.90
44215;DHT22;29884;47.450;19.124;2023-12-29T00:42:44;1.50;99.90
44215;DHT22;29884;47.450;19.124;2023-12-29T00:45:10;1.50;99.90
44215;DHT22;29884;47.450;19.124;2023-12-29T00:47:35;1.50;99.90
44215;DHT22;29884;47.450;19.124;2023-12-29T00:50:01;1.60;99.90
44215;DHT22;29884;47.450;19.124;2023-12-29T00:52:27;1.60;99.90
44215;DHT22;29884;47.450;19.124;2023-12-29T00:54:53;1.60;99.90
44215;DHT22;29884;47.450;19.124;2023-12-29T00:57:19;1.50;99.90
44215;DHT22;29884;47.450;19.124;2023-12-29T00:59:47;1.50;99.90
44215;DHT22;29884;47.450;19.124;2023-12-29T01:02:12;1.60;99.90
44215;DHT22;29884;47.450;19.124;2023-12-29T01:04:38;1.60;99.90
44215;DHT22;29884;47.450;19.124;2023-12-29T01:07:04;1.60;99.90
44215;DHT22;29884;47.450;19.124;2023-12-29T01:09:30;1.60;99.90
44215;DHT22;29884;47.450;19.124;2023-12-29T01:11:56;1.60;99.90
44215;DHT22;29884;47.450;19.124;2023-12-29T01:14:21;1.60;99.90
44215;DHT22;29884;47.450;19.124;2023-12-29T01:16:47;1.60;99.90
44215;DHT22;29884;47.450;19.124;2023-12-29T01:19:12;1.70;99.90
44215;DHT22;29884;47.450;19.124;2023-12-29T01:21:38;1.60;99.90
44215;DHT22;29884;47.450;19.124;2023-12-29T01:24:04;1.60;99.90
44215;DHT22;29884;47.450;19.124;2023-12-29T01:26:31;1.60;99.90
44215;DHT22;29884;47.450;19.124;2023-12-29T01:28:57;1.50;99.90
44215;DHT22;29884;47.450;19.124;2023-12-29T01:31:23;1.60;99.90
44215;DHT22;29884;47.450;19.124;2023-12-29T01:33:48;1.60;99.90
44215;DHT22;29884;47.450;19.124;2023-12-29T01:36:18;1.60;99.90
44215;DHT22;29884;47.450;19.124;2023-12-29T01:38:44;1.60;99.90
44215;DHT22;29884;47.450;19.124;2023-12-29T01:41:10;1.60;99.90
44215;DHT22;29884;47.450;19.124;2023-12-29T01:43:35;1.60;99.90
44215;DHT22;29884;47.450;19.124;2023-12-29T01:46:01;1.60;99.90
44215;DHT22;29884;47.450;19.124;2023-12-29T01:48:27;1.60;99.90
44215;DHT22;29884;47.450;19.124;2023-12-29T01:50:53;1.60;99.90
44215;DHT22;29884;47.450;19.124;2023-12-29T01:53:20;1.60;99.90
44215;DHT22;29884;47.450;19.124;2023-12-29T01:55:46;1.60;99.90
44215;DHT22;29884;47.450;19.124;2023-12-29T01:58:13;1.60;99.90
44215;DHT22;29884;47.450;19.124;2023-12-29T02:00:39;1.50;99.90
44215;DHT22;29884;47.450;19.124;2023-12-29T02:03:05;1.60;99.90
44215;DHT22;29884;47.450;19.124;2023-12-29T02:05:33;1.50;99.90
44215;DHT22;29884;47.450;19.124;2023-12-29T02:08:00;1.50;99.90
44215;DHT22;29884;47.450;19.124;2023-12-29T02:10:27;1.50;99.90
44215;DHT22;29884;47.450;19.124;2023-12-29T02:12:53;1.50;99.90
44215;DHT22;29884;47.450;19.124;2023-12-29T02:15:22;1.50;99.90
44215;DHT22;29884;47.450;19.124;2023-12-29T02:18:02;1.50;99.90
44215;DHT22;29884;47.450;19.124;2023-12-29T02:20:29;1.50;99.90
44215;DHT22;29884;47.450;19.124;2023-12-29T02:22:55;1.50;99.90
44215;DHT22;29884;47.450;19.124;2023-12-29T02:25:21;1.50;99.90
44215;DHT22;29884;47.450;19.124;2023-12-29T02:28:11;1.50;99.90
44215;DHT22;29884;47.450;19.124;2023-12-29T02:31:06;1.60;99.90
44215;DHT22;29884;47.450;19.124;2023-12-29T02:33:37;1.60;99.90
44215;DHT22;29884;47.450;19.124;2023-12-29T02:36:04;1.70;99.90
44215;DHT22;29884;47.450;19.124;2023-12-29T02:38:31;1.60;99.90
44215;DHT22;29884;47.450;19.124;2023-12-29T02:40:57;1.60;99.90
44215;DHT22;29884;47.450;19.124;2023-12-29T02:43:23;1.60;99.90
44215;DHT22;29884;47.450;19.124;2023-12-29T02:45:48;1.60;99.90
44215;DHT22;29884;47.450;19.124;2023-12-29T02:48:14;1.60;99.90
44215;DHT22;29884;47.450;19.124;2023-12-29T02:50:40;1.60;99.90
44215;DHT22;29884;47.450;19.124;2023-12-29T02:53:05;1.60;99.90
44215;DHT22;29884;47.450;19.124;2023-12-29T02:55:31;1.60;99.90
44215;DHT22;29884;47.450;19.124;2023-12-29T02:57:57;1.70;99.90
44215;DHT22;29884;47.450;19.124;2023-12-29T03:00:22;1.70;99.90
44215;DHT22;29884;47.450;19.124;2023-12-29T03:02:48;1.70;99.90
44215;DHT22;29884;47.450;19.124;2023-12-29T03:05:14;1.80;99.90
44215;DHT22;29884;47.450;19.124;2023-12-29T03:07:40;1.80;99.90
44215;DHT22;29884;47.450;19.124;2023-12-29T03:10:07;1.70;99.90
44215;DHT22;29884;47.450;19.124;2023-12-29T03:12:32;1.80;99.90
44215;DHT22;29884;47.450;19.124;2023-12-29T03:14:58;1.90;99.90
44215;DHT22;29884;47.450;19.124;2023-12-29T03:17:24;1.80;99.90
44215;DHT22;29884;47.450;19.124;2023-12-29T03:19:49;1.80;99.90
44215;DHT22;29884;47.450;19.124;2023-12-29T03:22:15;1.80;99.90
44215;DHT22;29884;47.450;19.124;2023-12-29T03:24:41;1.80;99.90
44215;DHT22;29884;47.450;19.124;2023-12-29T03:27:08;1.90;99.90
44215;DHT22;29884;47.450;19.124;2023-12-29T03:29:33;1.90;99.90
44215;DHT22;29884;47.450;19.124;2023-12-29T03:31:59;1.90;99.90
44215;DHT22;29884;47.450;19.124;2023-12-29T03:34:24;2.00;99.90
44215;DHT22;29884;47.450;19.124;2023-12-29T03:36:50;1.90;99.90
44215;DHT22;29884;47.450;19.124;2023-12-29T03:39:15;1.90;99.90
44215;DHT22;29884;47.450;19.124;2023-12-29T03:41:41;2.00;99.90
44215;DHT22;29884;47.450;19.124;2023-12-29T03:44:07;2.00;99.90
44215;DHT22;29884;47.450;19.124;2023-12-29T03:46:32;2.00;99.90
44215;DHT22;29884;47.450;19.124;2023-12-29T03:48:58;2.00;99.90
44215;DHT22;29884;47.450;19.124;2023-12-29T03:51:24;2.10;99.90
44215;DHT22;29884;47.450;19.124;2023-12-29T03:53:50;2.10;99.90
44215;DHT22;29884;47.450;19.124;2023-12-29T03:56:17;2.10;99.90
44215;DHT22;29884;47.450;19.124;2023-12-29T03:58:46;2.00;99.90
44215;DHT22;29884;47.450;19.124;2023-12-29T04:01:12;2.10;99.90
44215;DHT22;29884;47.450;19.124;2023-12-29T04:03:39;2.00;99.90
44215;DHT22;29884;47.450;19.124;2023-12-29T04:06:05;1.90;99.90
44215;DHT22;29884;47.450;19.124;2023-12-29T04:08:31;1.90;99.90
44215;DHT22;29884;47.450;19.124;2023-12-29T04:10:57;2.00;99.90
44215;DHT22;29884;47.450;19.124;2023-12-29T04:13:23;2.00;99.90
44215;DHT22;29884;47.450;19.124;2023-12-29T04:15:48;1.80;99.90
44215;DHT22;29884;47.450;19.124;2023-12-29T04:18:14;1.80;99.90
44215;DHT22;29884;47.450;19.124;2023-12-29T04:20:40;1.80;99.90
44215;DHT22;29884;47.450;19.124;2023-12-29T04:23:06;1.80;99.90
44215;DHT22;29884;47.450;19.124;2023-12-29T04:25:33;1.80;99.90
44215;DHT22;29884;47.450;19.124;2023-12-29T04:27:59;1.80;99.90
44215;DHT22;29884;47.450;19.124;2023-12-29T04:30:25;1.70;99.90
44215;DHT22;29884;47.450;19.124;2023-12-29T04:32:50;1.80;99.90
44215;DHT22;29884;47.450;19.124;2023-12-29T04:35:16;1.80;99.90
44215;DHT22;29884;47.450;19.124;2023-12-29T04:37:45;1.80;99.90
44215;DHT22;29884;47.450;19.124;2023-12-29T04:40:11;1.70;99.90
44215;DHT22;29884;47.450;19.124;2023-12-29T04:42:37;1.60;99.90
44215;DHT22;29884;47.450;19.124;2023-12-29T04:45:03;1.70;99.90
44215;DHT22;29884;47.450;19.124;2023-12-29T04:47:29;1.70;99.90
44215;DHT22;29884;47.450;19.124;2023-12-29T04:49:55;1.70;99.90
44215;DHT22;29884;47.450;19.124;2023-12-29T04:52:21;1.70;99.90
44215;DHT22;29884;47.450;19.124;2023-12-29T04:54:46;1.60;99.90
44215;DHT22;29884;47.450;19.124;2023-12-29T04:57:12;1.60;99.90
44215;DHT22;29884;47.450;19.124;2023-12-29T04:59:37;1.60;99.90
44215;DHT22;29884;47.450;19.124;2023-12-29T05:02:03;1.80;99.90
44215;DHT22;29884;47.450;19.124;2023-12-29T05:04:29;1.70;99.90
44215;DHT22;29884;47.450;19.124;2023-12-29T05:06:54;1.70;99.90
44215;DHT22;29884;47.450;19.124;2023-12-29T05:09:20;1.70;99.90
44215;DHT22;29884;47.450;19.124;2023-12-29T05:11:46;1.60;99.90
44215;DHT22;29884;47.450;19.124;2023-12-29T05:14:11;1.50;99.90
44215;DHT22;29884;47.450;19.124;2023-12-29T05:16:37;1.50;99.90
44215;DHT22;29884;47.450;19.124;2023-12-29T05:19:03;1.50;99.90
44215;DHT22;29884;47.450;19.124;2023-12-29T05:21:28;1.60;99.90
44215;DHT22;29884;47.450;19.124;2023-12-29T05:23:54;1.60;99.90
44215;DHT22;29884;47.450;19.124;2023-12-29T05:26:19;1.60;99.90
44215;DHT22;29884;47.450;19.124;2023-12-29T05:28:45;1.60;99.90
44215;DHT22;29884;47.450;19.124;2023-12-29T05:31:11;1.50;99.90
44215;DHT22;29884;47.450;19.124;2023-12-29T05:33:36;1.60;99.90
44215;DHT22;29884;47.450;19.124;2023-12-29T05:36:06;1.50;99.90
44215;DHT22;29884;47.450;19.124;2023-12-29T05:38:35;1.50;99.90
44215;DHT22;29884;47.450;19.124;2023-12-29T05:41:02;1.60;99.90
44215;DHT22;29884;47.450;19.124;2023-12-29T05:43:30;1.60;99.90
44215;DHT22;29884;47.450;19.124;2023-12-29T05:45:57;1.60;99.90
44215;DHT22;29884;47.450;19.124;2023-12-29T05:48:23;1.60;99.90
44215;DHT22;29884;47.450;19.124;2023-12-29T05:50:50;1.60;99.90
44215;DHT22;29884;47.450;19.124;2023-12-29T05:53:15;1.50;99.90
44215;DHT22;29884;47.450;19.124;2023-12-29T05:55:41;1.60;99.90
44215;DHT22;29884;47.450;19.124;2023-12-29T05:58:07;1.60;99.90
44215;DHT22;29884;47.450;19.124;2023-12-29T06:00:32;1.60;99.90
44215;DHT22;29884;47.450;19.124;2023-12-29T06:02:58;1.70;99.90
44215;DHT22;29884;47.450;19.124;2023-12-29T06:05:24;1.70;99.90
44215;DHT22;29884;47.450;19.124;2023-12-29T06:07:50;1.70;99.90
44215;DHT22;29884;47.450;19.124;2023-12-29T06:10:16;1.70;99.90
44215;DHT22;29884;47.450;19.124;2023-12-29T06:12:41;1.60;99.90
44215;DHT22;29884;47.450;19.124;2023-12-29T06:15:07;1.60;99.90
44215;DHT22;29884;47.450;19.124;2023-12-29T06:17:33;1.70;99.90
44215;DHT22;29884;47.450;19.124;2023-12-29T06:20:01;1.70;99.90
44215;DHT22;29884;47.450;19.124;2023-12-29T06:22:27;1.60;99.90
44215;DHT22;29884;47.450;19.124;2023-12-29T06:24:53;1.60;99.90
44215;DHT22;29884;47.450;19.124;2023-12-29T06:27:19;1.60;99.90
44215;DHT22;29884;47.450;19.124;2023-12-29T06:29:44;1.60;99.90
44215;DHT22;29884;47.450;19.124;2023-12-29T06:32:10;1.70;99.90
44215;DHT22;29884;47.450;19.124;2023-12-29T06:34:36;1.70;99.90
44215;DHT22;29884;47.450;19.124;2023-12-29T06:37:01;1.70;99.90
44215;DHT22;29884;47.450;19.124;2023-12-29T06:39:27;1.70;99.90
44215;DHT22;29884;47.450;19.124;2023-12-29T06:41:52;1.70;99.90
44215;DHT22;29884;47.450;19.124;2023-12-29T06:44:18;1.60;99.90
44215;DHT22;29884;47.450;19.124;2023-12-29T06:46:43;1.50;99.90
44215;DHT22;29884;47.450;19.124;2023-12-29T06:49:09;1.50;99.90
44215;DHT22;29884;47.450;19.124;2023-12-29T06:51:35;1.50;99.90
44215;DHT22;29884;47.450;19.124;2023-12-29T06:54:06;1.50;99.90
44215;DHT22;29884;47.450;19.124;2023-12-29T06:56:32;1.50;99.90
44215;DHT22;29884;47.450;19.124;2023-12-29T06:58:57;1.60;99.90
44215;DHT22;29884;47.450;19.124;2023-12-29T07:01:23;1.50;99.90
44215;DHT22;29884;47.450;19.124;2023-12-29T07:03:50;1.50;99.90
44215;DHT22;29884;47.450;19.124;2023-12-29T07:06:15;1.60;99.90
44215;DHT22;29884;47.450;19.124;2023-12-29T07:08:41;1.60;99.90
44215;DHT22;29884;47.450;19.124;2023-12-29T07:11:11;1.60;99.90
44215;DHT22;29884;47.450;19.124;2023-12-29T07:13:39;1.60;99.90
44215;DHT22;29884;47.450;19.124;2023-12-29T07:16:05;1.50;99.90
44215;DHT22;29884;47.450;19.124;2023-12-29T07:18:30;1.60;99.90
44215;DHT22;29884;47.450;19.124;2023-12-29T07:20:56;1.70;99.90
44215;DHT22;29884;47.450;19.124;2023-12-29T07:23:22;1.60;99.90
44215;DHT22;29884;47.450;19.124;2023-12-29T07:25:48;1.50;99.90
44215;DHT22;29884;47.450;19.124;2023-12-29T07:28:13;1.60;99.90
44215;DHT22;29884;47.450;19.124;2023-12-29T07:30:39;1.50;99.90
44215;DHT22;29884;47.450;19.124;2023-12-29T07:33:05;1.50;99.90
44215;DHT22;29884;47.450;19.124;2023-12-29T07:35:30;1.60;99.90
44215;DHT22;29884;47.450;19.124;2023-12-29T07:37:56;1.60;99.90
44215;DHT22;29884;47.450;19.124;2023-12-29T07:40:21;1.60;99.90
44215;DHT22;29884;47.450;19.124;2023-12-29T07:42:48;1.70;99.90
44215;DHT22;29884;47.450;19.124;2023-12-29T07:45:16;1.60;99.90
44215;DHT22;29884;47.450;19.124;2023-12-29T07:47:41;1.60;99.90
44215;DHT22;29884;47.450;19.124;2023-12-29T07:50:07;1.60;99.90
44215;DHT22;29884;47.450;19.124;2023-12-29T07:52:33;1.60;99.90
44215;DHT22;29884;47.450;19.124;2023-12-29T07:54:58;1.60;99.90
44215;DHT22;29884;47.450;19.124;2023-12-29T07:57:24;1.70;99.90
44215;DHT22;29884;47.450;19.124;2023-12-29T07:59:49;1.80;99.90
44215;DHT22;29884;47.450;19.124;2023-12-29T08:02:15;1.80;99.90
44215;DHT22;29884;47.450;19.124;2023-12-29T08:04:42;1.70;99.90
44215;DHT22;29884;47.450;19.124;2023-12-29T08:07:07;1.70;99.90
44215;DHT22;29884;47.450;19.124;2023-12-29T08:09:33;1.80;99.90
44215;DHT22;29884;47.450;19.124;2023-12-29T08:11:59;1.70;99.90
44215;DHT22;29884;47.450;19.124;2023-12-29T08:14:26;1.70;99.90
44215;DHT22;29884;47.450;19.124;2023-12-29T08:16:51;1.70;99.90
44215;DHT22;29884;47.450;19.124;2023-12-29T08:19:17;1.70;99.90
44215;DHT22;29884;47.450;19.124;2023-12-29T08:21:42;1.70;99.90
44215;DHT22;29884;47.450;19.124;2023-12-29T08:24:08;1.70;99.90
44215;DHT22;29884;47.450;19.124;2023-12-29T08:26:34;1.90;99.90
44215;DHT22;29884;47.450;19.124;2023-12-29T08:28:59;1.90;99.90
44215;DHT22;29884;47.450;19.124;2023-12-29T08:31:25;1.90;99.90
44215;DHT22;29884;47.450;19.124;2023-12-29T08:33:51;1.90;99.90
44215;DHT22;29884;47.450;19.124;2023-12-29T08:36:20;2.00;99.90
44215;DHT22;29884;47.450;19.124;2023-12-29T08:38:46;2.00;99.90
44215;DHT22;29884;47.450;19.124;2023-12-29T08:41:13;2.00;99.90
44215;DHT22;29884;47.450;19.124;2023-12-29T08:43:39;2.00;99.90
44215;DHT22;29884;47.450;19.124;2023-12-29T08:46:05;2.10;99.90
44215;DHT22;29884;47.450;19.124;2023-12-29T08:48:30;2.20;99.90
44215;DHT22;29884;47.450;19.124;2023-12-29T08:50:56;2.30;99.90
44215;DHT22;29884;47.450;19.124;2023-12-29T08:53:22;2.50;99.90
44215;DHT22;29884;47.450;19.124;2023-12-29T08:55:47;2.40;99.90
44215;DHT22;29884;47.450;19.124;2023-12-29T08:58:13;2.30;99.90
44215;DHT22;29884;47.450;19.124;2023-12-29T09:00:38;2.40;99.90
44215;DHT22;29884;47.450;19.124;2023-12-29T09:03:04;2.40;99.90
44215;DHT22;29884;47.450;19.124;2023-12-29T09:05:30;2.40;99.90
44215;DHT22;29884;47.450;19.124;2023-12-29T09:07:55;2.40;99.90
44215;DHT22;29884;47.450;19.124;2023-12-29T09:10:21;2.40;99.90
44215;DHT22;29884;47.450;19.124;2023-12-29T09:12:48;2.40;99.90
44215;DHT22;29884;47.450;19.124;2023-12-29T09:15:14;2.30;99.90
44215;DHT22;29884;47.450;19.124;2023-12-29T09:17:39;2.40;99.90
44215;DHT22;29884;47.450;19.124;2023-12-29T09:20:06;2.60;99.90
44215;DHT22;29884;47.450;19.124;2023-12-29T09:22:33;2.70;99.90
44215;DHT22;29884;47.450;19.124;2023-12-29T09:24:59;2.70;99.90
44215;DHT22;29884;47.450;19.124;2023-12-29T09:27:24;2.80;99.90
44215;DHT22;29884;47.450;19.124;2023-12-29T09:29:50;2.80;99.90
44215;DHT22;29884;47.450;19.124;2023-12-29T09:32:16;2.90;99.90
44215;DHT22;29884;47.450;19.124;2023-12-29T09:34:41;3.00;99.90
44215;DHT22;29884;47.450;19.124;2023-12-29T09:37:07;3.10;99.90
44215;DHT22;29884;47.450;19.124;2023-12-29T09:39:33;3.30;99.90
44215;DHT22;29884;47.450;19.124;2023-12-29T09:41:59;3.40;99.90
44215;DHT22;29884;47.450;19.124;2023-12-29T09:44:29;3.40;99.90
44215;DHT22;29884;47.450;19.124;2023-12-29T09:47:02;3.40;99.90
44215;DHT22;29884;47.450;19.124;2023-12-29T09:49:37;3.50;99.90
44215;DHT22;29884;47.450;19.124;2023-12-29T09:52:07;3.50;99.90
44215;DHT22;29884;47.450;19.124;2023-12-29T09:54:35;3.60;99.90
44215;DHT22;29884;47.450;19.124;2023-12-29T09:57:03;3.70;99.90
44215;DHT22;29884;47.450;19.124;2023-12-29T09:59:29;3.70;99.90
44215;DHT22;29884;47.450;19.124;2023-12-29T10:01:56;3.80;99.90
44215;DHT22;29884;47.450;19.124;2023-12-29T10:04:21;3.90;99.90
44215;DHT22;29884;47.450;19.124;2023-12-29T10:06:48;4.00;99.90
44215;DHT22;29884;47.450;19.124;2023-12-29T10:09:16;4.00;99.90
44215;DHT22;29884;47.450;19.124;2023-12-29T10:11:42;4.00;99.90
44215;DHT22;29884;47.450;19.124;2023-12-29T10:16:50;4.20;99.90
44215;DHT22;29884;47.450;19.124;2023-12-29T10:22:03;4.20;99.90
44215;DHT22;29884;47.450;19.124;2023-12-29T10:24:29;4.30;99.90
44215;DHT22;29884;47.450;19.124;2023-12-29T10:26:55;4.30;99.90
44215;DHT22;29884;47.450;19.124;2023-12-29T10:29:21;4.30;99.90
44215;DHT22;29884;47.450;19.124;2023-12-29T10:31:47;4.30;99.90
44215;DHT22;29884;47.450;19.124;2023-12-29T10:34:25;4.50;99.90
44215;DHT22;29884;47.450;19.124;2023-12-29T10:36:55;4.50;99.90
44215;DHT22;29884;47.450;19.124;2023-12-29T10:39:21;4.60;99.90
44215;DHT22;29884;47.450;19.124;2023-12-29T10:41:47;4.60;99.90
44215;DHT22;29884;47.450;19.124;2023-12-29T10:44:13;4.70;99.90
44215;DHT22;29884;47.450;19.124;2023-12-29T10:46:38;4.90;99.90
44215;DHT22;29884;47.450;19.124;2023-12-29T10:51:34;5.00;99.90
44215;DHT22;29884;47.450;19.124;2023-12-29T10:54:00;5.10;99.90
44215;DHT22;29884;47.450;19.124;2023-12-29T10:56:26;5.30;99.90
44215;DHT22;29884;47.450;19.124;2023-12-29T10:59:02;5.40;99.90
44215;DHT22;29884;47.450;19.124;2023-12-29T11:01:35;5.50;99.90
44215;DHT22;29884;47.450;19.124;2023-12-29T11:04:03;5.50;99.90
44215;DHT22;29884;47.450;19.124;2023-12-29T11:06:30;5.60;99.90
44215;DHT22;29884;47.450;19.124;2023-12-29T11:09:04;5.60;99.90
44215;DHT22;29884;47.450;19.124;2023-12-29T11:11:30;5.70;99.90
44215;DHT22;29884;47.450;19.124;2023-12-29T11:13:56;5.80;99.90
44215;DHT22;29884;47.450;19.124;2023-12-29T11:16:23;5.80;99.90
44215;DHT22;29884;47.450;19.124;2023-12-29T11:18:49;5.90;99.90
44215;DHT22;29884;47.450;19.124;2023-12-29T11:21:19;6.10;99.90
44215;DHT22;29884;47.450;19.124;2023-12-29T11:23:47;6.10;99.90
44215;DHT22;29884;47.450;19.124;2023-12-29T11:26:12;6.30;99.90
44215;DHT22;29884;47.450;19.124;2023-12-29T11:28:39;6.40;99.90
44215;DHT22;29884;47.450;19.124;2023-12-29T11:31:04;6.50;99.90
44215;DHT22;29884;47.450;19.124;2023-12-29T11:33:35;6.50;99.90
44215;DHT22;29884;47.450;19.124;2023-12-29T11:36:07;6.60;99.90
44215;DHT22;29884;47.450;19.124;2023-12-29T11:41:42;6.80;99.90
44215;DHT22;29884;47.450;19.124;2023-12-29T11:44:09;6.80;99.90
44215;DHT22;29884;47.450;19.124;2023-12-29T11:46:38;6.90;99.90
44215;DHT22;29884;47.450;19.124;2023-12-29T11:49:05;6.90;99.90
44215;DHT22;29884;47.450;19.124;2023-12-29T11:53:57;6.90;99.90
44215;DHT22;29884;47.450;19.124;2023-12-29T11:56:23;6.90;99.90
44215;DHT22;29884;47.450;19.124;2023-12-29T11:58:49;6.90;99.90
44215;DHT22;29884;47.450;19.124;2023-12-29T12:01:33;6.90;99.90
44215;DHT22;29884;47.450;19.124;2023-12-29T12:04:00;6.90;99.90
44215;DHT22;29884;47.450;19.124;2023-12-29T12:06:38;7.00;99.90
44215;DHT22;29884;47.450;19.124;2023-12-29T12:09:23;7.00;99.90
44215;DHT22;29884;47.450;19.124;2023-12-29T12:11:51;7.00;99.90
44215;DHT22;29884;47.450;19.124;2023-12-29T12:14:42;7.00;99.90
44215;DHT22;29884;47.450;19.124;2023-12-29T12:17:08;7.00;99.90
44215;DHT22;29884;47.450;19.124;2023-12-29T12:19:35;7.00;99.90
44215;DHT22;29884;47.450;19.124;2023-12-29T12:22:02;7.00;99.90
44215;DHT22;29884;47.450;19.124;2023-12-29T12:24:28;7.10;99.90
44215;DHT22;29884;47.450;19.124;2023-12-29T12:26:54;7.10;99.90
44215;DHT22;29884;47.450;19.124;2023-12-29T12:29:20;7.20;99.90
44215;DHT22;29884;47.450;19.124;2023-12-29T12:31:53;7.30;99.90
44215;DHT22;29884;47.450;19.124;2023-12-29T12:34:19;7.30;99.90
44215;DHT22;29884;47.450;19.124;2023-12-29T12:36:48;7.40;99.90
44215;DHT22;29884;47.450;19.124;2023-12-29T12:39:15;7.40;99.90
44215;DHT22;29884;47.450;19.124;2023-12-29T12:41:41;7.50;99.90
44215;DHT22;29884;47.450;19.124;2023-12-29T12:46:41;7.60;99.90
44215;DHT22;29884;47.450;19.124;2023-12-29T12:49:09;7.70;99.90
44215;DHT22;29884;47.450;19.124;2023-12-29T12:51:35;7.80;99.90
44215;DHT22;29884;47.450;19.124;2023-12-29T12:54:01;7.90;99.90
44215;DHT22;29884;47.450;19.124;2023-12-29T12:56:27;7.90;99.90
44215;DHT22;29884;47.450;19.124;2023-12-29T12:59:02;8.00;99.90
44215;DHT22;29884;47.450;19.124;2023-12-29T13:01:29;8.10;99.90
44215;DHT22;29884;47.450;19.124;2023-12-29T13:03:59;8.10;99.90
44215;DHT22;29884;47.450;19.124;2023-12-29T13:06:25;8.10;99.90
44215;DHT22;29884;47.450;19.124;2023-12-29T13:08:51;8.10;99.90
44215;DHT22;29884;47.450;19.124;2023-12-29T13:11:21;8.10;99.90
44215;DHT22;29884;47.450;19.124;2023-12-29T13:13:48;8.20;99.90
44215;DHT22;29884;47.450;19.124;2023-12-29T13:16:14;8.30;99.90
44215;DHT22;29884;47.450;19.124;2023-12-29T13:18:40;8.30;99.90
44215;DHT22;29884;47.450;19.124;2023-12-29T13:21:06;8.30;99.90
44215;DHT22;29884;47.450;19.124;2023-12-29T13:23:32;8.30;99.90
44215;DHT22;29884;47.450;19.124;2023-12-29T13:26:01;8.30;99.90
44215;DHT22;29884;47.450;19.124;2023-12-29T13:28:28;8.30;99.90
44215;DHT22;29884;47.450;19.124;2023-12-29T13:30:55;8.30;99.90
44215;DHT22;29884;47.450;19.124;2023-12-29T13:33:30;8.30;99.90
44215;DHT22;29884;47.450;19.124;2023-12-29T13:36:10;8.20;99.90
44215;DHT22;29884;47.450;19.124;2023-12-29T13:38:42;8.10;99.90
44215;DHT22;29884;47.450;19.124;2023-12-29T13:41:12;8.00;99.90
44215;DHT22;29884;47.450;19.124;2023-12-29T13:43:42;7.90;99.90
44215;DHT22;29884;47.450;19.124;2023-12-29T13:46:10;7.90;99.90
44215;DHT22;29884;47.450;19.124;2023-12-29T13:48:37;7.90;99.90
44215;DHT22;29884;47.450;19.124;2023-12-29T13:51:03;7.90;99.90
44215;DHT22;29884;47.450;19.124;2023-12-29T13:53:29;7.90;99.90
44215;DHT22;29884;47.450;19.124;2023-12-29T13:56:09;7.90;99.90
44215;DHT22;29884;47.450;19.124;2023-12-29T13:58:35;7.90;99.90
44215;DHT22;29884;47.450;19.124;2023-12-29T14:01:04;7.80;99.90
44215;DHT22;29884;47.450;19.124;2023-12-29T14:03:34;7.80;99.90
44215;DHT22;29884;47.450;19.124;2023-12-29T14:06:08;7.80;99.90
44215;DHT22;29884;47.450;19.124;2023-12-29T14:08:45;7.80;99.90
44215;DHT22;29884;47.450;19.124;2023-12-29T14:11:11;7.80;99.90
44215;DHT22;29884;47.450;19.124;2023-12-29T14:13:45;7.80;99.90
44215;DHT22;29884;47.450;19.124;2023-12-29T14:16:11;7.80;99.90
44215;DHT22;29884;47.450;19.124;2023-12-29T14:21:32;7.70;99.90
44215;DHT22;29884;47.450;19.124;2023-12-29T14:24:14;7.70;99.90
44215;DHT22;29884;47.450;19.124;2023-12-29T14:26:54;7.60;99.90
44215;DHT22;29884;47.450;19.124;2023-12-29T14:29:24;7.50;99.90
44215;DHT22;29884;47.450;19.124;2023-12-29T14:31:51;7.60;99.90
44215;DHT22;29884;47.450;19.124;2023-12-29T14:34:17;7.60;99.90
44215;DHT22;29884;47.450;19.124;2023-12-29T14:36:43;7.50;99.90
44215;DHT22;29884;47.450;19.124;2023-12-29T14:39:09;7.50;99.90
44215;DHT22;29884;47.450;19.124;2023-12-29T14:41:35;7.50;99.90
44215;DHT22;29884;47.450;19.124;2023-12-29T14:44:02;7.40;99.90
44215;DHT22;29884;47.450;19.124;2023-12-29T14:46:28;7.40;99.90
44215;DHT22;29884;47.450;19.124;2023-12-29T14:48:54;7.30;99.90
44215;DHT22;29884;47.450;19.124;2023-12-29T14:51:21;7.30;99.90
44215;DHT22;29884;47.450;19.124;2023-12-29T14:53:48;7.20;99.90
44215;DHT22;29884;47.450;19.124;2023-12-29T14:56:15;7.10;99.90
44215;DHT22;29884;47.450;19.124;2023-12-29T14:58:41;7.10;99.90
44215;DHT22;29884;47.450;19.124;2023-12-29T15:01:07;7.10;99.90
44215;DHT22;29884;47.450;19.124;2023-12-29T15:03:34;6.90;99.90
44215;DHT22;29884;47.450;19.124;2023-12-29T15:05:59;6.90;99.90
44215;DHT22;29884;47.450;19.124;2023-12-29T15:08:26;6.80;99.90
44215;DHT22;29884;47.450;19.124;2023-12-29T15:10:53;6.70;99.90
44215;DHT22;29884;47.450;19.124;2023-12-29T15:13:19;6.70;99.90
44215;DHT22;29884;47.450;19.124;2023-12-29T15:15:44;6.70;99.90
44215;DHT22;29884;47.450;19.124;2023-12-29T15:18:10;6.60;99.90
44215;DHT22;29884;47.450;19.124;2023-12-29T15:20:36;6.50;99.90
44215;DHT22;29884;47.450;19.124;2023-12-29T15:23:01;6.40;99.90
44215;DHT22;29884;47.450;19.124;2023-12-29T15:25:28;6.30;99.90
44215;DHT22;29884;47.450;19.124;2023-12-29T15:27:53;6.20;99.90
44215;DHT22;29884;47.450;19.124;2023-12-29T15:30:19;6.10;99.90
44215;DHT22;29884;47.450;19.124;2023-12-29T15:32:45;6.00;99.90
44215;DHT22;29884;47.450;19.124;2023-12-29T15:35:11;6.00;99.90
44215;DHT22;29884;47.450;19.124;2023-12-29T15:37:37;5.90;99.90
44215;DHT22;29884;47.450;19.124;2023-12-29T15:40:03;5.80;99.90
44215;DHT22;29884;47.450;19.124;2023-12-29T15:42:32;5.70;99.90
44215;DHT22;29884;47.450;19.124;2023-12-29T15:44:57;5.70;99.90
44215;DHT22;29884;47.450;19.124;2023-12-29T15:47:23;5.60;99.90